Time;durP1;ratioP1;P1;durP2;ratioP2;P2;SDS_P1;SDS_P2;PMS_P1;PMS_P2;Temp;Humidity;BMP_temperature;BMP_pressure;BME280_temperature;BME280_humidity;BME280_pressure;Samples;Min_cycle;Max_cycle;Signal;HPM_P1;HPM_P2
2023/07/29 00:00:34;;;;;;;5.93;1.90;;;;;;;;;;5067393;28;20021;-51
2023/07/29 00:03:01;;;;;;;4.13;1.75;;;;;;;;;;5067630;28;20297;-48
2023/07/29 00:05:27;;;;;;;4.32;1.50;;;;;;;;;;5066876;28;20025;-57
2023/07/29 00:07:54;;;;;;;3.33;1.30;;;;;;;;;;5067299;28;20060;-47
2023/07/29 00:10:21;;;;;;;5.18;2.33;;;;;;;;;;5067211;28;20044;-54
2023/07/29 00:12:47;;;;;;;3.17;1.60;;;;;;;;;;5066978;28;20364;-45
2023/07/29 00:15:14;;;;;;;3.20;1.42;;;;;;;;;;5067069;28;20037;-53
2023/07/29 00:17:41;;;;;;;6.95;3.67;;;;;;;;;;5066603;28;20017;-51
2023/07/29 00:20:08;;;;;;;7.55;3.60;;;;;;;;;;5066540;28;20012;-56
2023/07/29 00:22:34;;;;;;;4.38;2.30;;;;;;;;;;5066605;28;20032;-55
2023/07/29 00:25:01;;;;;;;6.38;2.25;;;;;;;;;;5067386;28;20029;-47
2023/07/29 00:27:28;;;;;;;2.85;1.80;;;;;;;;;;5066881;28;20052;-49
2023/07/29 00:29:55;;;;;;;7.32;2.88;;;;;;;;;;5067970;28;20273;-49
2023/07/29 00:32:21;;;;;;;4.38;3.17;;;;;;;;;;5080757;28;20012;-47
2023/07/29 00:34:48;;;;;;;4.00;3.40;;;28.20;99.90;;;;;;5066012;28;20191;-50
2023/07/29 00:37:15;;;;;;;4.38;3.00;;;28.20;99.90;;;;;;5057715;28;20029;-49
2023/07/29 00:39:41;;;;;;;3.85;2.50;;;28.10;99.90;;;;;;5054163;28;20190;-49
2023/07/29 00:42:09;;;;;;;3.63;2.40;;;28.10;99.90;;;;;;5052570;28;20044;-57
2023/07/29 00:44:41;;;;;;;4.07;2.10;;;28.10;99.90;;;;;;5059448;28;20131;-49
2023/07/29 00:47:08;;;;;;;3.42;2.05;;;28.10;99.90;;;;;;5048290;28;20132;-51
2023/07/29 00:49:35;;;;;;;2.95;2.00;;;28.10;99.90;;;;;;5046250;28;20041;-51
2023/07/29 00:52:01;;;;;;;1.70;1.35;;;28.20;99.90;;;;;;5045899;28;20214;-48
2023/07/29 00:54:28;;;;;;;3.28;1.42;;;28.20;99.90;;;;;;5050525;28;20380;-46
2023/07/29 00:56:55;;;;;;;2.47;1.40;;;28.20;99.90;;;;;;5052708;28;20059;-44
2023/07/29 00:59:21;;;;;;;4.10;1.75;;;28.20;99.90;;;;;;5046330;28;20321;-53
2023/07/29 01:01:48;;;;;;;3.83;1.50;;;28.20;99.90;;;;;;5048306;28;20017;-50
2023/07/29 01:04:16;;;;;;;4.80;1.70;;;28.30;99.90;;;;;;5057319;28;20308;-56
2023/07/29 01:07:02;;;;;;;4.65;1.90;;;28.20;99.90;;;;;;5059209;28;20025;-51
2023/07/29 01:09:35;;;;;;;6.25;4.50;;;28.20;99.90;;;;;;5059634;28;20029;-50
2023/07/29 01:12:04;;;;;;;4.70;3.20;;;28.20;99.90;;;;;;5065574;28;20070;-49
2023/07/29 01:14:41;;;;;;;5.47;2.83;;;28.30;99.90;;;;;;5065985;28;20021;-49
2023/07/29 01:17:23;;;;;;;6.38;3.00;;;28.30;99.90;;;;;;5059435;28;20333;-47
2023/07/29 01:20:07;;;;;;;5.03;3.00;;;28.30;99.90;;;;;;5058696;28;20304;-50
2023/07/29 01:22:39;;;;;;;3.72;2.85;;;28.30;99.90;;;;;;5065763;28;20104;-47
2023/07/29 01:25:06;;;;;;;5.43;2.53;;;28.20;99.90;;;;;;5065566;28;20044;-46
2023/07/29 01:27:33;;;;;;;6.55;2.28;;;28.30;99.90;;;;;;5065724;28;20067;-49
2023/07/29 01:30:01;;;;;;;2.75;2.25;;;28.20;99.90;;;;;;5065788;28;20056;-51
2023/07/29 01:32:49;;;;;;;4.00;2.50;;;28.20;99.90;;;;;;5065424;28;20032;-52
2023/07/29 01:35:55;;;;;;;3.95;2.42;;;28.20;99.90;;;;;;5064053;28;20174;-48
2023/07/29 01:38:35;;;;;;;6.15;2.10;;;28.30;99.90;;;;;;5065132;28;20111;-48
2023/07/29 01:41:03;;;;;;;3.80;2.03;;;28.30;99.90;;;;;;5064953;28;20028;-50
2023/07/29 01:43:31;;;;;;;4.70;2.00;;;28.30;99.90;;;;;;5064913;28;20055;-50
2023/07/29 01:45:58;;;;;;;14.77;2.50;;;28.30;99.90;;;;;;5065040;28;20033;-47
2023/07/29 01:48:30;;;;;;;3.75;1.80;;;28.30;99.90;;;;;;5053938;28;20332;-56
2023/07/29 01:50:58;;;;;;;3.15;2.00;;;28.20;99.90;;;;;;5058317;28;20219;-46
2023/07/29 01:53:24;;;;;;;8.23;1.98;;;28.20;99.90;;;;;;5063405;28;20056;-53
2023/07/29 01:55:51;;;;;;;3.17;1.50;;;28.20;99.90;;;;;;5058196;28;20031;-48
2023/07/29 01:58:18;;;;;;;3.05;1.70;;;28.20;99.90;;;;;;5057605;28;20108;-44
2023/07/29 02:00:49;;;;;;;4.60;1.60;;;28.10;99.90;;;;;;5057533;28;20021;-47
2023/07/29 02:03:15;;;;;;;2.25;1.65;;;28.10;99.90;;;;;;5064434;28;20043;-45
2023/07/29 02:05:43;;;;;;;13.23;2.50;;;28.10;99.90;;;;;;5064459;28;20043;-48
2023/07/29 02:08:14;;;;;;;12.18;2.20;;;28.20;99.90;;;;;;5062191;28;20037;-47
2023/07/29 02:10:42;;;;;;;7.07;1.92;;;28.20;99.90;;;;;;5065221;28;20025;-50
2023/07/29 02:13:10;;;;;;;8.00;2.05;;;28.30;99.90;;;;;;5063892;28;20037;-45
2023/07/29 02:15:40;;;;;;;8.70;2.22;;;28.50;99.90;;;;;;5055963;28;20040;-44
2023/07/29 02:18:07;;;;;;;7.47;1.90;;;28.50;99.90;;;;;;5060778;28;20092;-48
2023/07/29 02:20:35;;;;;;;4.72;1.48;;;28.50;99.90;;;;;;5052408;28;20025;-53
2023/07/29 02:23:01;;;;;;;5.55;1.40;;;28.50;99.90;;;;;;5057939;28;20021;-49
2023/07/29 02:25:29;;;;;;;6.82;1.40;;;28.60;99.90;;;;;;5064361;28;20025;-56
2023/07/29 02:27:56;;;;;;;3.75;1.35;;;28.50;99.90;;;;;;5064153;28;20266;-48
2023/07/29 02:30:23;;;;;;;4.00;1.00;;;28.50;99.90;;;;;;5065125;28;20041;-44
2023/07/29 02:32:50;;;;;;;2.90;1.27;;;28.50;99.90;;;;;;5096332;28;20078;-46
2023/07/29 02:35:17;;;;;;;5.68;1.20;;;28.50;99.90;;;;;;5064481;28;20339;-48
2023/07/29 02:37:43;;;;;;;2.13;0.90;;;28.50;99.90;;;;;;5062844;28;20032;-48
2023/07/29 02:40:11;;;;;;;2.70;1.15;;;28.60;99.90;;;;;;5064281;28;20033;-44
2023/07/29 02:42:38;;;;;;;1.80;0.80;;;28.60;99.90;;;;;;5063996;28;20084;-47
2023/07/29 02:45:09;;;;;;;4.10;1.02;;;28.50;99.90;;;;;;5095500;28;20099;-49
2023/07/29 02:47:37;;;;;;;1.92;1.10;;;28.50;99.90;;;;;;5064057;28;20096;-47
2023/07/29 02:50:05;;;;;;;7.55;1.13;;;28.50;99.90;;;;;;5064092;28;20074;-54
2023/07/29 02:52:32;;;;;;;2.83;1.10;;;28.60;99.90;;;;;;5056236;28;20056;-49
2023/07/29 02:54:58;;;;;;;18.10;1.95;;;28.50;99.90;;;;;;5059207;28;20048;-48
2023/07/29 02:57:28;;;;;;;7.57;1.33;;;;;;;;;;5064117;28;20023;-46
2023/07/29 02:59:56;;;;;;;5.85;1.00;;;;;;;;;;5063707;28;20056;-52
2023/07/29 03:03:07;;;;;;;4.47;1.00;;;;;;;;;;5065119;28;20028;-44
2023/07/29 03:05:34;;;;;;;3.92;1.13;;;;;;;;;;5067925;28;20100;-46
2023/07/29 03:08:01;;;;;;;2.92;1.30;;;;;;;;;;5066759;28;20146;-45
2023/07/29 03:10:35;;;;;;;2.35;1.13;;;;;;;;;;5063524;28;20340;-48
2023/07/29 03:13:03;;;;;;;2.50;0.98;;;;;;;;;;5056681;28;20332;-45
2023/07/29 03:15:30;;;;;;;4.32;1.45;;;;;;;;;;5063204;28;20033;-48
2023/07/29 03:17:56;;;;;;;5.72;1.15;;;;;;;;;;5047863;28;20018;-51
2023/07/29 03:20:23;;;;;;;3.92;0.90;;;;;;;;;;5048062;28;20039;-48
2023/07/29 03:22:50;;;;;;;3.95;0.90;;;;;;;;;;5047881;28;20033;-48
2023/07/29 03:25:20;;;;;;;4.28;0.90;;;;;;;;;;5047695;28;20037;-53
2023/07/29 03:27:49;;;;;;;1.98;0.90;;;;;;;;;;5057122;28;20096;-48
2023/07/29 03:30:16;;;;;;;4.05;1.15;;;;;;;;;;5061103;28;20043;-49
2023/07/29 03:32:46;;;;;;;5.03;1.30;;;;;;;;;;5047318;28;20020;-53
2023/07/29 03:35:13;;;;;;;3.50;1.02;;;;;;;;;;5047577;28;20044;-52
2023/07/29 03:37:40;;;;;;;7.35;0.95;;;;;;;;;;5047000;28;20029;-45
2023/07/29 03:40:08;;;;;;;3.83;1.30;;;;;;;;;;5047114;28;20024;-47
2023/07/29 03:42:36;;;;;;;2.38;0.90;;;;;;;;;;5047828;28;20041;-43
2023/07/29 03:45:03;;;;;;;4.20;1.05;;;;;;;;;;5047504;28;20066;-47
2023/07/29 03:47:29;;;;;;;4.20;0.80;;;;;;;;;;5046109;28;20018;-46
2023/07/29 03:49:56;;;;;;;5.38;1.17;;;;;;;;;;5047119;28;20067;-46
2023/07/29 03:52:23;;;;;;;5.07;1.27;;;;;;;;;;5047717;28;20229;-53
2023/07/29 03:54:50;;;;;;;2.92;1.20;;;;;;;;;;5047318;28;20018;-48
2023/07/29 03:57:16;;;;;;;3.67;1.15;;;;;;;;;;5047590;28;20026;-48
2023/07/29 03:59:43;;;;;;;2.70;0.98;;;;;;;;;;5046835;28;20021;-48
2023/07/29 04:02:12;;;;;;;5.10;1.20;;;;;;;;;;5047116;28;20044;-46
2023/07/29 04:04:39;;;;;;;5.93;1.00;;;;;;;;;;5046252;28;20098;-44
2023/07/29 04:07:06;;;;;;;5.70;1.17;;;;;;;;;;5047347;28;20026;-47
2023/07/29 04:09:33;;;;;;;5.28;1.10;;;;;;;;;;5046907;28;20032;-44
2023/07/29 04:12:00;;;;;;;4.25;1.00;;;;;;;;;;5047407;28;20037;-44
2023/07/29 04:14:26;;;;;;;2.42;1.13;;;;;;;;;;5045774;28;20026;-45
2023/07/29 04:16:53;;;;;;;3.63;0.95;;;;;;;;;;5050369;28;20028;-44
2023/07/29 04:19:20;;;;;;;3.20;0.98;;;;;;;;;;5064093;28;20021;-45
2023/07/29 04:21:46;;;;;;;4.25;1.30;;;;;;;;;;5055470;28;20123;-43
2023/07/29 04:24:13;;;;;;;3.63;1.33;;;;;;;;;;5065882;28;20271;-42
2023/07/29 04:26:40;;;;;;;3.88;1.30;;;;;;;;;;5067529;28;20268;-46
2023/07/29 04:29:07;;;;;;;5.30;1.15;;;;;;;;;;5067007;28;20324;-48
2023/07/29 04:31:33;;;;;;;6.90;1.42;;;;;;;;;;5067448;28;20305;-45
2023/07/29 04:34:00;;;;;;;3.35;1.38;;;;;;;;;;5067018;28;20040;-45
2023/07/29 04:36:27;;;;;;;4.20;1.00;;;;;;;;;;5067244;28;20080;-48
2023/07/29 04:38:53;;;;;;;2.78;1.13;;;;;;;;;;5066043;28;20021;-44
2023/07/29 04:41:20;;;;;;;6.88;1.45;;;;;;;;;;5066979;28;20033;-47
2023/07/29 04:43:47;;;;;;;2.53;1.23;;;;;;;;;;5066377;28;20067;-47
2023/07/29 04:46:13;;;;;;;3.35;1.05;;;;;;;;;;5066649;28;20025;-48
2023/07/29 04:48:41;;;;;;;4.50;1.40;;;;;;;;;;5066539;28;20041;-43
2023/07/29 04:51:08;;;;;;;3.00;1.30;;;;;;;;;;5066830;28;20033;-55
2023/07/29 04:53:36;;;;;;;3.08;1.30;;;;;;;;;;5053879;28;20018;-50
2023/07/29 04:56:03;;;;;;;4.18;1.30;;;;;;;;;;5065165;28;20033;-46
2023/07/29 04:58:30;;;;;;;2.15;1.10;;;;;;;;;;5065751;28;20029;-45
2023/07/29 05:00:56;;;;;;;5.50;1.30;;;;;;;;;;5065967;28;20067;-50
2023/07/29 05:03:23;;;;;;;6.85;1.70;;;;;;;;;;5065754;28;20052;-48
2023/07/29 05:05:51;;;;;;;2.60;1.20;;;;;;;;;;5065678;28;20085;-49
2023/07/29 05:08:18;;;;;;;5.03;1.05;;;;;;;;;;5065598;28;20017;-52
2023/07/29 05:10:44;;;;;;;6.07;1.20;;;;;;;;;;5065695;28;20064;-45
2023/07/29 05:13:11;;;;;;;2.70;1.05;;;;;;;;;;5065652;28;20044;-50
2023/07/29 05:15:38;;;;;;;4.57;1.20;;;;;;;;;;5065592;28;20025;-44
2023/07/29 05:18:06;;;;;;;3.25;1.10;;;;;;;;;;5065600;28;20091;-50
2023/07/29 05:20:32;;;;;;;3.55;1.10;;;;;;;;;;5065567;28;20029;-49
2023/07/29 05:22:59;;;;;;;3.25;1.00;;;;;;;;;;5065349;28;20309;-48
2023/07/29 05:25:25;;;;;;;4.20;1.38;;;;;;;;;;5064961;28;20041;-45
2023/07/29 05:27:52;;;;;;;5.35;1.08;;;;;;;;;;5065295;28;20043;-47
2023/07/29 05:30:19;;;;;;;4.53;1.15;;;;;;;;;;5065289;28;20036;-44
2023/07/29 05:32:45;;;;;;;3.72;1.10;;;;;;;;;;5064982;28;20041;-47
2023/07/29 05:35:12;;;;;;;4.13;1.10;;;;;;;;;;5064828;28;20221;-46
2023/07/29 05:37:42;;;;;;;6.75;0.90;;;;;;;;;;5065161;28;20021;-46
2023/07/29 05:40:09;;;;;;;3.55;0.98;;;;;;;;;;5064453;28;20116;-45
2023/07/29 05:42:36;;;;;;;5.93;1.20;;;;;;;;;;5065080;28;20339;-53
2023/07/29 05:45:03;;;;;;;3.67;1.00;;;;;;;;;;5064793;28;20053;-52
2023/07/29 05:47:29;;;;;;;5.15;1.10;;;;;;;;;;5064804;28;20083;-47
2023/07/29 05:49:56;;;;;;;5.18;1.02;;;;;;;;;;5064854;28;20029;-47
2023/07/29 05:52:22;;;;;;;5.97;0.90;;;;;;;;;;5064795;28;20024;-48
2023/07/29 05:54:49;;;;;;;8.30;0.98;;;;;;;;;;5064499;28;20055;-47
2023/07/29 05:57:16;;;;;;;4.10;0.95;;;;;;;;;;5064671;28;20379;-46
2023/07/29 05:59:44;;;;;;;3.30;0.70;;;;;;;;;;5065173;28;20044;-52
2023/07/29 06:02:11;;;;;;;3.40;0.98;;;;;;;;;;5064415;28;20020;-46
2023/07/29 06:04:37;;;;;;;5.55;1.23;;;;;;;;;;5064507;28;20066;-48
2023/07/29 06:07:04;;;;;;;8.57;1.45;;;;;;;;;;5065012;28;20025;-41
2023/07/29 06:09:31;;;;;;;5.20;1.52;;;;;;;;;;5064355;28;20037;-48
2023/07/29 06:11:57;;;;;;;6.75;1.77;;;;;;;;;;5064879;28;20154;-45
2023/07/29 06:14:24;;;;;;;6.75;1.90;;;;;;;;;;5064372;28;20017;-46
2023/07/29 06:16:50;;;;;;;9.95;2.47;;;;;;;;;;5064658;28;20221;-53
2023/07/29 06:19:18;;;;;;;9.73;2.70;;;;;;;;;;5064390;28;20198;-44
2023/07/29 06:21:45;;;;;;;27.95;3.30;;;;;;;;;;5064700;28;20067;-50
2023/07/29 06:24:12;;;;;;;18.50;3.90;;;;;;;;;;5064077;28;20036;-42
2023/07/29 06:26:38;;;;;;;14.23;3.50;;;;;;;;;;5064556;28;20032;-49
2023/07/29 06:29:05;;;;;;;14.07;3.55;;;;;;;;;;5064230;28;20309;-49
2023/07/29 06:31:32;;;;;;;10.43;3.30;;;;;;;;;;5063994;28;20033;-41
2023/07/29 06:33:59;;;;;;;12.32;3.38;;;;;;;;;;5064233;28;20029;-45
2023/07/29 06:36:26;;;;;;;8.25;2.40;;;;;;;;;;5064484;28;20029;-49
2023/07/29 06:38:53;;;;;;;10.07;3.10;;;;;;;;;;5064702;28;20024;-49
2023/07/29 06:41:19;;;;;;;9.52;2.92;;;;;;;;;;5065017;28;20045;-47
2023/07/29 06:43:46;;;;;;;7.30;2.55;;;;;;;;;;5063913;28;20037;-49
2023/07/29 06:46:13;;;;;;;6.95;2.42;;;;;;;;;;5064126;28;20087;-55
2023/07/29 06:48:39;;;;;;;7.20;2.63;;;;;;;;;;5064215;28;20041;-49
2023/07/29 06:51:06;;;;;;;6.18;1.90;;;;;;;;;;5064092;28;20217;-44
2023/07/29 06:53:33;;;;;;;6.40;2.03;;;;;;;;;;5064066;28;20033;-45
2023/07/29 06:55:59;;;;;;;4.30;1.60;;;;;;;;;;5063996;28;20120;-44
2023/07/29 06:58:26;;;;;;;6.63;1.75;;;;;;;;;;5063834;28;20017;-52
2023/07/29 07:00:53;;;;;;;6.75;1.77;;;;;;;;;;5063900;28;20025;-46
2023/07/29 07:03:19;;;;;;;5.25;1.60;;;;;;;;;;5063776;28;20025;-51
2023/07/29 07:05:46;;;;;;;4.38;1.20;;;;;;;;;;5064263;28;20025;-49
2023/07/29 07:08:13;;;;;;;4.32;1.40;;;;;;;;;;5063910;28;20025;-46
2023/07/29 07:10:39;;;;;;;4.55;1.30;;;;;;;;;;5063699;28;20212;-46
2023/07/29 07:13:06;;;;;;;5.38;1.60;;;;;;;;;;5063975;28;20044;-46
2023/07/29 07:15:33;;;;;;;3.45;1.20;;;;;;;;;;5063513;28;20033;-44
2023/07/29 07:17:59;;;;;;;4.28;1.45;;;;;;;;;;5063572;28;20047;-44
2023/07/29 07:20:26;;;;;;;3.85;1.08;;;;;;;;;;5064191;28;20028;-50
2023/07/29 07:22:53;;;;;;;3.72;1.15;;;;;;;;;;5063712;28;20029;-43
2023/07/29 07:25:19;;;;;;;4.47;1.00;;;;;;;;;;5063964;28;20100;-48
2023/07/29 07:27:46;;;;;;;3.22;1.10;;;;;;;;;;5063828;28;20051;-43
2023/07/29 07:30:13;;;;;;;1.85;0.63;;;;;;;;;;5063744;28;20087;-50
2023/07/29 07:32:39;;;;;;;5.25;1.05;;;;;;;;;;5063368;28;20036;-51
2023/07/29 07:35:06;;;;;;;3.70;1.08;;;;;;;;;;5063340;28;20028;-43
2023/07/29 07:37:33;;;;;;;2.75;0.75;;;;;;;;;;5063530;28;20285;-51
2023/07/29 07:39:59;;;;;;;2.25;0.98;;;;;;;;;;5063244;28;20029;-50
2023/07/29 07:42:26;;;;;;;3.05;0.98;;;;;;;;;;5063605;28;20208;-44
2023/07/29 07:44:52;;;;;;;3.40;0.88;;;;;;;;;;5062895;28;20049;-42
2023/07/29 07:47:19;;;;;;;1.85;0.60;;;;;;;;;;5063402;28;20033;-52
2023/07/29 07:49:46;;;;;;;3.42;0.60;;;;;;;;;;5066551;28;20205;-48
2023/07/29 07:52:12;;;;;;;3.83;0.90;;;;;;;;;;5067685;28;20037;-49
2023/07/29 07:54:39;;;;;;;2.10;0.70;;;;;;;;;;5066842;28;20085;-49
2023/07/29 07:57:06;;;;;;;1.98;0.70;;;;;;;;;;5066959;28;20084;-44
2023/07/29 07:59:32;;;;;;;4.55;0.82;;;;;;;;;;5067057;28;20315;-50
2023/07/29 08:01:59;;;;;;;2.85;0.60;;;;;;;;;;5066715;28;20048;-57
2023/07/29 08:04:26;;;;;;;3.38;0.60;;;;;;;;;;5066916;28;20048;-56
2023/07/29 08:06:52;;;;;;;1.30;0.40;;;;;;;;;;5067255;28;20029;-58
2023/07/29 08:09:19;;;;;;;1.05;0.50;;;;;;;;;;5066731;28;20029;-58
2023/07/29 08:11:46;;;;;;;3.05;0.60;;;;;;;;;;5067243;28;20033;-52
2023/07/29 08:14:12;;;;;;;1.85;0.50;;;;;;;;;;5066746;28;20028;-52
2023/07/29 08:16:39;;;;;;;2.35;0.52;;;;;;;;;;5067094;28;20092;-52
2023/07/29 08:19:07;;;;;;;0.95;0.55;;;;;;;;;;5066469;28;20020;-52
2023/07/29 08:21:33;;;;;;;1.48;0.45;;;;;;;;;;5067306;28;20044;-45
2023/07/29 08:24:00;;;;;;;1.45;0.60;;;;;;;;;;5066440;28;20035;-46
2023/07/29 08:26:26;;;;;;;2.58;0.63;;;;;;;;;;5066824;28;20024;-50
2023/07/29 08:28:53;;;;;;;3.15;0.63;;;;;;;;;;5066602;28;20080;-44
2023/07/29 08:31:20;;;;;;;1.52;0.50;;;;;;;;;;5066720;28;20037;-46
2023/07/29 08:33:46;;;;;;;1.90;0.50;;;;;;;;;;5066105;28;20039;-47
2023/07/29 08:36:13;;;;;;;0.65;0.30;;;;;;;;;;5066575;28;20212;-44
2023/07/29 08:38:40;;;;;;;2.75;0.57;;;;;;;;;;5066257;28;20272;-44
2023/07/29 08:41:25;;;;;;;3.20;0.40;;;;;;;;;;5066294;28;20213;-46
2023/07/29 08:44:00;;;;;;;1.55;0.65;;;;;;;;;;5065811;28;20045;-44
2023/07/29 08:46:26;;;;;;;2.45;0.40;;;;;;;;;;5066055;28;20031;-46
2023/07/29 08:48:53;;;;;;;2.78;0.50;;;;;;;;;;5066082;28;20037;-44
2023/07/29 08:51:20;;;;;;;5.03;0.75;;;;;;;;;;5066292;28;20044;-52
2023/07/29 08:53:47;;;;;;;4.78;0.60;;;;;;;;;;5065800;28;20028;-50
2023/07/29 08:56:14;;;;;;;1.48;0.25;;;;;;;;;;5066237;28;20334;-50
2023/07/29 08:58:40;;;;;;;2.58;0.50;;;;;;;;;;5065840;28;20069;-50
2023/07/29 09:01:07;;;;;;;3.50;0.43;;;;;;;;;;5065502;28;20025;-43
2023/07/29 09:03:34;;;;;;;2.33;0.50;;;;;;;;;;5065907;28;20025;-41
2023/07/29 09:06:02;;;;;;;5.97;0.63;;;;;;;;;;5066370;28;20316;-41
2023/07/29 09:08:29;;;;;;;1.92;0.50;;;;;;;;;;5065469;28;20033;-42
2023/07/29 09:10:56;;;;;;;1.50;0.60;;;;;;;;;;5065820;28;20105;-44
2023/07/29 09:13:23;;;;;;;0.70;0.40;;;;;;;;;;5065669;28;20031;-47
2023/07/29 09:15:49;;;;;;;1.58;0.40;;;;;;;;;;5065669;28;20051;-44
2023/07/29 09:18:17;;;;;;;2.63;0.57;;;;;;;;;;5065270;28;20029;-51
2023/07/29 09:20:44;;;;;;;1.30;0.45;;;;;;;;;;5070893;28;20055;-48
2023/07/29 09:23:11;;;;;;;1.55;0.55;;;;;;;;;;5076317;28;20021;-45
2023/07/29 09:25:38;;;;;;;2.58;0.60;;;;;;;;;;5065803;28;20037;-45
2023/07/29 09:28:12;;;;;;;1.38;0.50;;;;;;;;;;5065225;28;20047;-43
2023/07/29 09:30:43;;;;;;;1.48;0.50;;;;;;;;;;5065580;28;20048;-45
2023/07/29 09:33:09;;;;;;;2.55;0.50;;;;;;;;;;5065142;28;20170;-49
2023/07/29 09:35:37;;;;;;;2.92;0.70;;;;;;;;;;5065307;28;20029;-49
2023/07/29 09:38:04;;;;;;;0.80;0.50;;;;;;;;;;5064941;28;20032;-50
2023/07/29 09:40:37;;;;;;;1.02;0.50;;;;;;;;;;5065134;28;20070;-55
2023/07/29 09:43:04;;;;;;;1.27;0.65;;;;;;;;;;5064637;28;20295;-51
2023/07/29 09:45:30;;;;;;;1.52;0.60;;;;;;;;;;5064905;28;20059;-46
2023/07/29 09:48:01;;;;;;;1.60;0.43;;;;;;;;;;5064601;28;20032;-42
2023/07/29 09:50:28;;;;;;;3.03;0.50;;;;;;;;;;5064869;28;20044;-42
2023/07/29 09:52:55;;;;;;;2.90;0.60;;;;;;;;;;5064979;28;20229;-42
2023/07/29 09:55:26;;;;;;;3.05;0.70;;;;;;;;;;5065029;28;20178;-48
2023/07/29 09:58:01;;;;;;;2.80;0.60;;;;;;;;;;5064598;28;20355;-50
2023/07/29 10:00:29;;;;;;;3.70;0.68;;;;;;;;;;5064766;28;20040;-43
2023/07/29 10:02:56;;;;;;;5.00;0.80;;;;;;;;;;5064720;28;20344;-44
2023/07/29 10:05:26;;;;;;;2.22;0.60;;;;;;;;;;5064910;28;20037;-45
2023/07/29 10:07:54;;;;;;;3.17;0.65;;;;;;;;;;5064741;28;20020;-46
2023/07/29 10:10:21;;;;;;;1.75;0.70;;;;;;;;;;5064533;28;20040;-47
2023/07/29 10:12:48;;;;;;;2.80;0.55;;;;;;;;;;5063500;28;20032;-53
2023/07/29 10:15:15;;;;;;;3.30;0.60;;;;;;;;;;5064629;28;20024;-52
2023/07/29 10:17:42;;;;;;;1.45;0.52;;;;;;;;;;5064383;28;20228;-52
2023/07/29 10:20:10;;;;;;;2.15;0.70;;;;;;;;;;5064643;28;20036;-50
2023/07/29 10:22:38;;;;;;;3.08;0.88;;;;;;;;;;5064355;28;20020;-42
2023/07/29 10:25:07;;;;;;;2.35;1.00;;;;;;;;;;5064310;28;20044;-44
2023/07/29 10:27:40;;;;;;;2.30;1.02;;;;;;;;;;5064283;28;20047;-53
2023/07/29 10:30:07;;;;;;;7.63;1.27;;;;;;;;;;5064340;28;20260;-48
2023/07/29 10:32:34;;;;;;;6.03;1.58;;;;;;;;;;5063213;28;20028;-47
2023/07/29 10:35:01;;;;;;;2.83;1.10;;;;;;;;;;5064067;28;20037;-43
2023/07/29 10:37:27;;;;;;;1.70;0.93;;;;;;;;;;5064398;28;20092;-48
2023/07/29 10:39:55;;;;;;;2.90;1.05;;;;;;;;;;5064002;28;20024;-51
2023/07/29 10:42:22;;;;;;;3.97;1.20;;;;;;;;;;5064318;28;20028;-51
2023/07/29 10:44:50;;;;;;;2.40;1.23;;;;;;;;;;5063961;28;20057;-47
2023/07/29 10:47:17;;;;;;;4.15;1.20;;;;;;;;;;5064012;28;20055;-45
2023/07/29 10:49:45;;;;;;;10.23;1.60;;;;;;;;;;5064254;28;20025;-47
2023/07/29 10:52:29;;;;;;;3.50;1.30;;;;;;;;;;5064218;28;20024;-48
2023/07/29 10:54:55;;;;;;;3.80;1.50;;;;;;;;;;5061766;28;20036;-50
2023/07/29 10:57:36;;;;;;;4.18;1.13;;;;;;;;;;5080024;28;20095;-43
2023/07/29 11:00:04;;;;;;;3.92;1.00;;;;;;;;;;5083826;28;20037;-44
2023/07/29 11:02:31;;;;;;;5.25;1.35;;;;;;;;;;5084228;28;20044;-50
2023/07/29 11:04:57;;;;;;;6.63;1.20;;;;;;;;;;5074417;28;20342;-47
2023/07/29 11:07:28;;;;;;;9.68;1.45;;;;;;;;;;5063846;28;20028;-47
2023/07/29 11:09:56;;;;;;;3.53;1.50;;;;;;;;;;5063799;28;20029;-54
2023/07/29 11:12:35;;;;;;;5.72;1.35;;;;;;;;;;5078319;28;20029;-53
2023/07/29 11:15:12;;;;;;;4.85;1.17;;;;;;;;;;5083750;28;20047;-46
2023/07/29 11:17:50;;;;;;;5.32;1.17;;;;;;;;;;5083911;28;20091;-43
2023/07/29 11:20:17;;;;;;;6.20;1.60;;;;;;;;;;5084236;28;20032;-49
2023/07/29 11:22:44;;;;;;;5.32;1.70;;;;;;;;;;5084354;28;20350;-49
2023/07/29 11:25:12;;;;;;;3.35;1.48;;;;;;;;;;5087791;28;20031;-44
2023/07/29 11:27:39;;;;;;;5.57;1.40;;;;;;;;;;5087839;28;20073;-48
2023/07/29 11:30:10;;;;;;;3.30;1.45;;;;;;;;;;5079598;28;20056;-47
2023/07/29 11:32:37;;;;;;;17.52;15.75;;;;;;;;;;5068469;28;20013;-45
2023/07/29 11:35:17;;;;;;;18.20;16.58;;;;;;;;;;5067611;28;20212;-51
2023/07/29 11:37:51;;;;;;;6.78;4.47;;;;;;;;;;5067563;28;20029;-55
2023/07/29 11:40:19;;;;;;;7.35;5.18;;;;;;;;;;5067674;28;20041;-51
2023/07/29 11:42:50;;;;;;;5.32;4.82;;;;;;;;;;5067682;28;20025;-44
2023/07/29 11:45:17;;;;;;;7.18;4.20;;;;;;;;;;5073750;28;20323;-47
2023/07/29 11:47:45;;;;;;;7.35;3.75;;;;;;;;;;5087354;28;20347;-52
2023/07/29 11:50:16;;;;;;;7.70;3.33;;;;;;;;;;5087382;28;20056;-46
2023/07/29 11:52:46;;;;;;;6.13;2.42;;;;;;;;;;5087061;28;20020;-54
2023/07/29 11:55:14;;;;;;;7.60;2.47;;;;;;;;;;5087577;28;20249;-50
2023/07/29 11:57:42;;;;;;;3.40;1.90;;;;;;;;;;5087098;28;20028;-44
2023/07/29 12:00:10;;;;;;;1.77;1.50;;;;;;;;;;5085976;28;20216;-45
2023/07/29 12:02:38;;;;;;;5.03;1.60;;;;;;;;;;5075677;28;20312;-48
2023/07/29 12:05:09;;;;;;;3.05;1.80;;;;;;;;;;5067055;28;20061;-49
2023/07/29 12:07:36;;;;;;;2.45;1.40;;;;;;;;;;5067173;28;20054;-46
2023/07/29 12:10:06;;;;;;;3.78;1.40;;;;;;;;;;5067179;28;20037;-48
2023/07/29 12:12:33;;;;;;;2.83;1.35;;;;;;;;;;5066675;28;20032;-51
2023/07/29 12:15:00;;;;;;;3.17;1.30;;;;;;;;;;5066638;28;20380;-53
2023/07/29 12:17:28;;;;;;;3.78;1.40;;;;;;;;;;5066745;28;20039;-47
2023/07/29 12:19:55;;;;;;;3.80;1.70;;;;;;;;;;5066913;28;20029;-47
2023/07/29 12:22:23;;;;;;;3.65;1.40;;;;;;;;;;5076144;28;20025;-44
2023/07/29 12:24:53;;;;;;;4.45;1.38;;;;;;;;;;5086759;28;20039;-46
2023/07/29 12:27:23;;;;;;;2.72;1.08;;;;;;;;;;5086621;28;20036;-45
2023/07/29 12:29:53;;;;;;;4.15;1.17;;;;;;;;;;5086686;28;20243;-45
2023/07/29 12:32:19;;;;;;;3.53;1.27;;;;;;;;;;5086841;28;20054;-50
2023/07/29 12:34:46;;;;;;;7.30;2.22;;;;;;;;;;5085134;28;20024;-48
2023/07/29 12:37:13;;;;;;;4.75;1.80;;;;;;;;;;5086410;28;20027;-50
2023/07/29 12:39:42;;;;;;;4.75;1.48;;;;;;;;;;5086365;28;20224;-44
2023/07/29 12:42:09;;;;;;;4.20;1.13;;;;;;;;;;5086145;28;20032;-45
2023/07/29 12:44:37;;;;;;;4.38;1.20;;;;;;;;;;5086235;28;20043;-46
2023/07/29 12:47:04;;;;;;;5.43;1.40;;;;;;;;;;5087055;28;20193;-46
2023/07/29 12:49:31;;;;;;;3.95;1.42;;;;;;;;;;5086372;28;20051;-46
2023/07/29 12:51:59;;;;;;;4.50;1.17;;;;;;;;;;5088757;28;20021;-47
2023/07/29 12:54:26;;;;;;;3.60;1.10;;;;;;;;;;5087151;28;20024;-46
2023/07/29 12:56:53;;;;;;;7.28;1.42;;;;;;;;;;5086909;28;20173;-48
2023/07/29 12:59:19;;;;;;;1.85;0.95;;;;;;;;;;5086378;28;20017;-48
2023/07/29 13:01:46;;;;;;;1.77;0.80;;;;;;;;;;5086188;28;20044;-51
2023/07/29 13:04:13;;;;;;;5.35;1.20;;;;;;;;;;5085968;28;20024;-46
2023/07/29 13:06:42;;;;;;;2.28;1.00;;;;;;;;;;5086341;28;20024;-46
2023/07/29 13:09:08;;;;;;;3.55;0.93;;;;;;;;;;5085914;28;20033;-52
2023/07/29 13:11:35;;;;;;;2.03;1.00;;;;;;;;;;5086280;28;20040;-45
2023/07/29 13:14:02;;;;;;;2.15;0.73;;;;;;;;;;5084722;28;20216;-44
2023/07/29 13:16:32;;;;;;;2.50;0.70;;;;;;;;;;5086369;28;20037;-47
2023/07/29 13:18:59;;;;;;;2.65;0.80;;;;;;;;;;5085506;28;20328;-47
2023/07/29 13:21:25;;;;;;;2.10;0.60;;;;;;;;;;5086242;28;20017;-45
2023/07/29 13:23:52;;;;;;;1.42;0.60;;;;;;;;;;5085339;28;20029;-47
2023/07/29 13:26:19;;;;;;;2.53;0.75;;;;;;;;;;5085666;28;20043;-50
2023/07/29 13:28:46;;;;;;;1.17;0.60;;;;;;;;;;5085886;28;20084;-46
2023/07/29 13:31:12;;;;;;;2.88;0.60;;;;;;;;;;5085967;28;20041;-46
2023/07/29 13:33:39;;;;;;;2.35;0.93;;;;;;;;;;5085761;28;20316;-48
2023/07/29 13:36:08;;;;;;;1.23;0.57;;;;;;;;;;5085445;28;20127;-46
2023/07/29 13:38:36;;;;;;;1.70;0.60;;;29.30;99.90;;;;;;5085449;28;20029;-47
2023/07/29 13:41:03;;;;;;;1.52;0.50;;;29.00;99.90;;;;;;5060266;28;20025;-52
2023/07/29 13:43:29;;;;;;;1.20;0.52;;;28.90;99.90;;;;;;5060789;28;20087;-53
2023/07/29 13:45:56;;;;;;;3.60;0.93;;;28.80;99.90;;;;;;5065299;28;20037;-54
2023/07/29 13:48:22;;;;;;;2.53;0.80;;;28.60;99.90;;;;;;5057027;28;20029;-47
2023/07/29 13:50:50;;;;;;;1.45;1.05;;;28.70;99.90;;;;;;5055520;28;20300;-45
2023/07/29 13:53:17;;;;;;;2.63;0.93;;;28.70;99.90;;;;;;5044988;28;20041;-53
2023/07/29 13:55:44;;;;;;;2.70;1.00;;;28.70;99.90;;;;;;5045144;28;20033;-50
2023/07/29 13:58:10;;;;;;;1.45;0.98;;;28.70;99.90;;;;;;5043621;28;20052;-50
2023/07/29 14:00:37;;;;;;;1.75;0.90;;;28.60;99.90;;;;;;5045093;28;20247;-54
2023/07/29 14:03:04;;;;;;;2.63;0.82;;;28.60;99.90;;;;;;5044704;28;20025;-50
2023/07/29 14:05:30;;;;;;;0.95;0.60;;;28.60;99.90;;;;;;5044951;28;20028;-47
2023/07/29 14:07:57;;;;;;;0.68;0.60;;;28.60;99.90;;;;;;5044830;28;20040;-46
2023/07/29 14:10:24;;;;;;;4.05;0.65;;;28.60;99.90;;;;;;5044715;28;20096;-48
2023/07/29 14:12:51;;;;;;;4.07;0.82;;;28.60;99.90;;;;;;5044709;28;20312;-47
2023/07/29 14:15:18;;;;;;;19.45;1.45;;;28.60;99.90;;;;;;5044537;28;20045;-49
2023/07/29 14:17:45;;;;;;;15.38;1.48;;;28.60;99.90;;;;;;5044740;28;20092;-50